createdAt,value
2018-03-11T00:02:24.142Z,11.20
2018-03-11T00:04:52.385Z,10.23
2018-03-11T00:07:19.846Z,9.07
2018-03-11T00:09:47.327Z,9.00
2018-03-11T00:12:15.548Z,8.63
2018-03-11T00:14:43.100Z,7.67
2018-03-11T00:17:10.468Z,8.60
2018-03-11T00:19:37.936Z,8.97
2018-03-11T00:22:05.406Z,8.20
2018-03-11T00:24:32.872Z,8.40
2018-03-11T00:27:00.378Z,8.63
2018-03-11T00:29:27.846Z,7.90
2018-03-11T00:31:55.304Z,9.17
2018-03-11T00:34:22.773Z,8.83
2018-03-11T00:36:50.249Z,8.77
2018-03-11T00:39:17.709Z,9.80
2018-03-11T00:41:45.161Z,8.43
2018-03-11T00:44:12.622Z,10.10
2018-03-11T00:46:40.119Z,10.20
2018-03-11T00:49:07.580Z,10.53
2018-03-11T00:51:35.046Z,8.50
2018-03-11T00:54:02.497Z,8.63
2018-03-11T00:56:29.954Z,7.67
2018-03-11T00:58:57.406Z,9.20
2018-03-11T01:01:24.866Z,8.40
2018-03-11T01:03:52.334Z,8.23
2018-03-11T01:06:19.805Z,12.10
2018-03-11T01:08:47.260Z,12.27
2018-03-11T01:11:14.726Z,13.63
2018-03-11T01:13:42.183Z,14.47
2018-03-11T01:16:09.645Z,14.00
2018-03-11T01:18:37.114Z,12.17
2018-03-11T01:21:04.578Z,12.00
2018-03-11T01:23:32.036Z,11.40
2018-03-11T01:25:59.498Z,11.37
2018-03-11T01:28:26.958Z,11.77
2018-03-11T01:30:54.418Z,9.80
2018-03-11T01:33:22.642Z,9.90
2018-03-11T01:35:50.106Z,9.40
2018-03-11T01:38:17.563Z,9.30
2018-03-11T01:40:45.030Z,10.93
2018-03-11T01:43:12.489Z,10.13
2018-03-11T01:45:39.958Z,11.80
2018-03-11T01:48:07.423Z,10.90
2018-03-11T01:50:34.884Z,12.20
2018-03-11T01:53:08.199Z,10.33
2018-03-11T01:55:35.654Z,9.70
2018-03-11T01:58:03.128Z,9.50
2018-03-11T02:00:30.583Z,8.70
2018-03-11T02:02:58.049Z,9.90
2018-03-11T02:05:25.506Z,9.80
2018-03-11T02:07:52.991Z,9.60
2018-03-11T02:10:20.446Z,9.47
2018-03-11T02:12:47.917Z,9.73
2018-03-11T02:15:15.371Z,9.30
2018-03-11T02:17:42.841Z,9.53
2018-03-11T02:20:10.301Z,9.70
2018-03-11T02:22:38.546Z,8.63
2018-03-11T02:25:05.998Z,9.57
2018-03-11T02:27:33.470Z,9.80
2018-03-11T02:30:00.930Z,9.53
2018-03-11T02:32:28.400Z,9.40
2018-03-11T02:34:55.856Z,9.63
2018-03-11T02:37:23.318Z,8.70
2018-03-11T02:39:51.549Z,9.50
2018-03-11T02:42:19.015Z,10.17
2018-03-11T02:44:46.466Z,10.30
2018-03-11T02:47:13.938Z,9.80
2018-03-11T02:49:41.395Z,9.37
2018-03-11T02:52:08.858Z,9.33
2018-03-11T02:54:36.314Z,9.30
2018-03-11T02:57:03.771Z,9.53
2018-03-11T02:59:31.222Z,9.23
2018-03-11T03:01:58.669Z,8.17
2018-03-11T03:04:26.133Z,9.13
2018-03-11T03:06:53.590Z,8.00
2018-03-11T03:09:21.052Z,8.17
2018-03-11T03:11:48.500Z,8.40
2018-03-11T03:14:15.966Z,7.90
2018-03-11T03:16:43.418Z,8.30
2018-03-11T03:19:10.903Z,7.10
2018-03-11T03:21:39.123Z,8.47
2018-03-11T03:24:06.582Z,7.40
2018-03-11T03:26:34.035Z,7.60
2018-03-11T03:29:01.498Z,7.43
2018-03-11T03:31:28.947Z,7.23
2018-03-11T03:33:56.410Z,7.60
2018-03-11T03:36:23.857Z,7.37
2018-03-11T03:38:51.322Z,7.30
2018-03-11T03:41:18.765Z,7.67
2018-03-11T03:43:46.225Z,7.00
2018-03-11T03:46:13.696Z,7.67
2018-03-11T03:48:41.154Z,7.60
2018-03-11T03:51:08.609Z,7.33
2018-03-11T03:53:36.066Z,6.17
2018-03-11T03:56:03.526Z,6.20
2018-03-11T03:58:30.982Z,6.33
2018-03-11T04:00:58.437Z,6.70
2018-03-11T04:03:25.880Z,6.73
2018-03-11T04:05:53.338Z,6.50
2018-03-11T04:08:21.791Z,6.70
2018-03-11T04:10:49.246Z,5.50
2018-03-11T04:13:16.698Z,7.23
2018-03-11T04:15:44.157Z,6.77
2018-03-11T04:18:11.614Z,6.20
2018-03-11T04:20:39.086Z,7.27
2018-03-11T04:23:06.530Z,6.73
2018-03-11T04:25:33.981Z,7.40
2018-03-11T04:28:01.437Z,6.70
2018-03-11T04:30:28.898Z,6.83
2018-03-11T04:32:56.353Z,6.90
2018-03-11T04:35:23.819Z,6.90
2018-03-11T04:37:51.273Z,7.07
2018-03-11T04:40:18.758Z,6.47
2018-03-11T04:42:46.208Z,6.27
2018-03-11T04:45:14.425Z,6.73
2018-03-11T04:47:41.880Z,6.07
2018-03-11T04:50:09.325Z,6.83
2018-03-11T04:52:36.773Z,7.23
2018-03-11T04:55:04.235Z,7.67
2018-03-11T04:57:32.269Z,8.10
2018-03-11T04:59:59.687Z,7.50
2018-03-11T05:02:27.137Z,9.20
2018-03-11T05:04:54.594Z,8.37
2018-03-11T05:07:22.825Z,9.00
2018-03-11T05:09:50.280Z,8.67
2018-03-11T05:12:17.725Z,7.67
2018-03-11T05:14:45.208Z,8.60
2018-03-11T05:17:12.678Z,8.87
2018-03-11T05:19:40.148Z,8.53
2018-03-11T05:22:07.595Z,7.33
2018-03-11T05:24:35.039Z,7.97
2018-03-11T05:27:02.498Z,7.90
2018-03-11T05:29:29.973Z,7.37
2018-03-11T05:31:57.437Z,7.60
2018-03-11T05:34:25.647Z,7.00
2018-03-11T05:36:53.869Z,7.93
2018-03-11T05:39:21.326Z,7.43
2018-03-11T05:41:48.785Z,7.73
2018-03-11T05:44:16.234Z,8.93
2018-03-11T05:46:43.702Z,10.23
2018-03-11T05:49:11.162Z,9.23
2018-03-11T05:51:38.625Z,9.40
2018-03-11T05:54:06.838Z,9.97
2018-03-11T05:56:34.297Z,9.90
2018-03-11T05:59:01.760Z,9.70
2018-03-11T06:01:29.982Z,10.70
2018-03-11T06:03:57.443Z,10.10
2018-03-11T06:06:24.905Z,9.30
2018-03-11T06:08:52.366Z,10.50
2018-03-11T06:11:19.860Z,10.80
2018-03-11T06:13:47.313Z,11.20
2018-03-11T06:16:14.769Z,11.90
2018-03-11T06:18:42.246Z,11.30
2018-03-11T06:21:09.726Z,10.60
2018-03-11T06:23:37.173Z,10.50
2018-03-11T06:26:04.641Z,10.77
2018-03-11T06:28:32.102Z,11.10
2018-03-11T06:30:59.558Z,10.70
2018-03-11T06:33:27.016Z,11.27
2018-03-11T06:35:54.469Z,10.90
2018-03-11T06:38:21.934Z,10.40
2018-03-11T06:40:50.187Z,10.87
2018-03-11T06:43:17.658Z,11.30
2018-03-11T06:45:45.114Z,10.40
2018-03-11T06:48:12.578Z,10.27
2018-03-11T06:50:40.806Z,10.70
2018-03-11T06:53:08.271Z,10.70
2018-03-11T06:55:35.722Z,10.23
2018-03-11T06:58:03.185Z,10.50
2018-03-11T07:00:30.638Z,9.80
2018-03-11T07:02:58.102Z,10.10
2018-03-11T07:05:25.578Z,10.40
2018-03-11T07:07:53.030Z,8.70
2018-03-11T07:10:20.481Z,8.10
2018-03-11T07:12:47.941Z,7.90
2018-03-11T07:15:15.395Z,6.83
2018-03-11T07:17:42.857Z,6.13
2018-03-11T07:20:10.311Z,7.20
2018-03-11T07:22:37.767Z,6.17
2018-03-11T07:25:05.238Z,6.67
2018-03-11T07:27:33.298Z,7.37
2018-03-11T07:30:00.753Z,7.13
2018-03-11T07:32:28.207Z,6.77
2018-03-11T07:34:55.662Z,7.77
2018-03-11T07:37:23.113Z,7.30
2018-03-11T07:39:50.577Z,7.07
2018-03-11T07:42:18.039Z,7.60
2018-03-11T07:44:45.506Z,7.40
2018-03-11T07:47:13.730Z,7.83
2018-03-11T07:49:41.949Z,7.40
2018-03-11T07:52:09.401Z,7.30
2018-03-11T07:54:37.837Z,6.53
2018-03-11T07:57:05.273Z,8.97
2018-03-11T07:59:32.738Z,10.93
2018-03-11T08:02:00.202Z,13.10
2018-03-11T08:04:28.567Z,10.67
2018-03-11T08:06:56.041Z,9.80
2018-03-11T08:09:24.406Z,7.50
2018-03-11T08:11:51.861Z,8.73
2018-03-11T08:14:19.333Z,9.00
2018-03-11T08:16:46.821Z,7.90
2018-03-11T08:19:14.276Z,7.87
2018-03-11T08:21:41.730Z,6.67
2018-03-11T08:24:09.185Z,6.40
2018-03-11T08:26:36.643Z,9.60
2018-03-11T08:29:04.118Z,8.90
2018-03-11T08:31:31.578Z,8.77
2018-03-11T08:33:59.025Z,8.50
2018-03-11T08:36:26.590Z,7.83
2018-03-11T08:38:54.051Z,8.77
2018-03-11T08:41:22.488Z,9.43
2018-03-11T08:43:49.938Z,8.57
2018-03-11T08:46:17.389Z,7.70
2018-03-11T08:48:44.846Z,7.10
2018-03-11T08:51:12.305Z,7.00
2018-03-11T08:53:39.755Z,7.60
2018-03-11T08:56:07.232Z,7.77
2018-03-11T08:58:34.677Z,7.10
2018-03-11T09:01:02.139Z,7.50
2018-03-11T09:03:30.103Z,7.83
2018-03-11T09:05:57.546Z,9.17
2018-03-11T09:08:25.005Z,8.23
2018-03-11T09:10:52.466Z,7.93
2018-03-11T09:13:19.925Z,6.40
2018-03-11T09:15:47.388Z,7.97
2018-03-11T09:18:15.609Z,7.10
2018-03-11T09:20:43.069Z,7.23
2018-03-11T09:23:11.291Z,7.97
2018-03-11T09:25:38.750Z,7.20
2018-03-11T09:28:06.205Z,6.07
2018-03-11T09:30:36.584Z,4.97
2018-03-11T09:33:04.800Z,5.30
2018-03-11T09:35:32.436Z,4.77
2018-03-11T09:37:59.956Z,5.20
2018-03-11T09:40:27.418Z,4.87
2018-03-11T09:42:54.874Z,4.63
2018-03-11T09:45:22.333Z,5.80
2018-03-11T09:47:49.785Z,4.50
2018-03-11T09:50:17.253Z,4.60
2018-03-11T09:52:45.493Z,4.53
2018-03-11T09:55:12.950Z,5.30
2018-03-11T09:57:40.429Z,5.27
2018-03-11T10:00:07.903Z,6.00
2018-03-11T10:02:36.133Z,5.77
2018-03-11T10:05:03.599Z,5.80
2018-03-11T10:07:31.062Z,5.80
2018-03-11T10:09:58.504Z,4.40
2018-03-11T10:12:25.965Z,4.73
2018-03-11T10:14:53.424Z,5.00
2018-03-11T10:17:20.890Z,5.70
2018-03-11T10:19:48.339Z,5.00
2018-03-11T10:22:15.812Z,11.27
2018-03-11T10:24:43.261Z,5.43
2018-03-11T10:27:10.722Z,5.80
2018-03-11T10:29:38.172Z,4.97
2018-03-11T10:32:05.642Z,3.00
2018-03-11T10:34:33.086Z,2.90
2018-03-11T10:37:00.557Z,2.87
2018-03-11T10:39:28.014Z,2.60
2018-03-11T10:41:55.479Z,2.57
2018-03-11T10:44:23.897Z,2.00
2018-03-11T10:46:51.353Z,2.77
2018-03-11T10:49:18.807Z,2.60
2018-03-11T10:51:46.269Z,2.50
2018-03-11T10:54:13.721Z,2.97
2018-03-11T10:56:41.185Z,2.70
2018-03-11T10:59:08.641Z,2.30
2018-03-11T11:04:41.269Z,2.83
2018-03-11T11:07:08.724Z,2.63
2018-03-11T11:09:36.213Z,2.63
2018-03-11T11:12:04.445Z,2.53
2018-03-11T11:14:31.893Z,2.50
2018-03-11T11:16:59.363Z,2.93
2018-03-11T11:19:26.809Z,3.00
2018-03-11T11:21:54.271Z,3.40
2018-03-11T11:24:21.733Z,3.50
2018-03-11T11:26:49.191Z,4.97
2018-03-11T11:29:16.640Z,5.10
2018-03-11T11:31:44.097Z,6.00
2018-03-11T11:34:11.557Z,6.07
2018-03-11T11:36:39.005Z,5.73
2018-03-11T11:39:06.461Z,6.53
2018-03-11T11:41:33.917Z,7.00
2018-03-11T11:44:01.393Z,5.30
2018-03-11T11:46:28.863Z,6.40
2018-03-11T11:48:56.322Z,7.40
2018-03-11T11:51:23.769Z,7.13
2018-03-11T11:53:51.230Z,9.53
2018-03-11T11:56:18.683Z,7.00
2018-03-11T11:58:46.142Z,6.63
2018-03-11T12:01:13.589Z,6.60
2018-03-11T12:03:41.059Z,8.00
2018-03-11T12:06:08.504Z,7.43
2018-03-11T12:08:35.966Z,7.00
2018-03-11T12:11:03.501Z,7.50
2018-03-11T12:13:30.967Z,6.97
2018-03-11T12:15:58.997Z,6.07
2018-03-11T12:18:26.454Z,6.00
2018-03-11T12:20:53.914Z,6.03
2018-03-11T12:23:22.138Z,6.17
2018-03-11T12:25:49.593Z,5.63
2018-03-11T12:28:17.048Z,5.80
2018-03-11T12:30:44.516Z,5.47
2018-03-11T12:33:11.971Z,6.70
2018-03-11T12:35:39.455Z,7.00
2018-03-11T12:38:07.665Z,5.40
2018-03-11T12:40:35.129Z,4.97
2018-03-11T12:43:02.593Z,4.70
2018-03-11T12:45:30.078Z,10.73
2018-03-11T12:47:57.532Z,5.13
2018-03-11T12:50:24.990Z,4.43
2018-03-11T12:52:53.215Z,4.20
2018-03-11T12:55:20.681Z,4.03
2018-03-11T12:57:48.169Z,3.60
2018-03-11T13:00:15.621Z,3.97
2018-03-11T13:02:43.073Z,3.37
2018-03-11T13:05:10.545Z,3.80
2018-03-11T13:07:38.006Z,3.73
2018-03-11T13:10:06.261Z,3.87
2018-03-11T13:12:34.505Z,3.60
2018-03-11T13:15:01.970Z,4.30
2018-03-11T13:17:29.426Z,3.60
2018-03-11T13:20:05.601Z,3.50
2018-03-11T13:22:33.052Z,4.20
2018-03-11T13:25:00.519Z,4.00
2018-03-11T13:27:28.015Z,3.60
2018-03-11T13:29:56.257Z,3.93
2018-03-11T13:32:35.647Z,4.97
2018-03-11T13:35:03.109Z,4.70
2018-03-11T13:37:30.570Z,3.70
2018-03-11T13:40:10.089Z,3.43
2018-03-11T13:42:38.322Z,3.63
2018-03-11T13:45:17.644Z,3.03
2018-03-11T13:47:45.105Z,3.70
2018-03-11T13:50:12.577Z,3.37
2018-03-11T13:52:52.498Z,3.90
2018-03-11T13:55:19.966Z,3.10
2018-03-11T13:58:22.822Z,3.73
2018-03-11T14:00:50.294Z,3.10
2018-03-11T14:03:17.936Z,3.60
2018-03-11T14:05:45.410Z,3.40
2018-03-11T14:08:12.862Z,4.00
2018-03-11T14:10:40.325Z,5.30
2018-03-11T14:13:07.807Z,3.60
2018-03-11T14:15:35.278Z,3.67
2018-03-11T14:18:03.501Z,3.10
2018-03-11T14:20:30.959Z,2.90
2018-03-11T14:22:58.415Z,3.33
2018-03-11T14:25:25.873Z,3.50
2018-03-11T14:27:53.342Z,3.20
2018-03-11T14:30:20.854Z,3.00
2018-03-11T14:32:48.283Z,3.77
2018-03-11T14:35:15.738Z,3.00
2018-03-11T14:37:43.201Z,2.87
2018-03-11T14:40:10.653Z,3.40
2018-03-11T14:42:38.113Z,3.00
2018-03-11T14:45:05.569Z,3.50
2018-03-11T14:47:33.023Z,3.80
2018-03-11T14:50:00.473Z,3.87
2018-03-11T14:52:27.934Z,4.03
2018-03-11T14:54:55.389Z,3.60
2018-03-11T14:57:22.853Z,3.50
2018-03-11T14:59:50.314Z,3.97
2018-03-11T15:02:17.802Z,3.60
2018-03-11T15:04:45.282Z,3.70
2018-03-11T15:07:12.762Z,2.90
2018-03-11T15:09:40.214Z,3.23
2018-03-11T15:12:07.685Z,3.70
2018-03-11T15:14:35.145Z,4.07
2018-03-11T15:17:02.602Z,4.17
2018-03-11T15:19:30.069Z,3.30
2018-03-11T15:21:58.318Z,4.30
2018-03-11T15:24:25.778Z,3.60
2018-03-11T15:26:53.281Z,3.90
2018-03-11T15:29:20.747Z,5.00
2018-03-11T15:31:48.225Z,5.30
2018-03-11T15:34:15.690Z,5.43
2018-03-11T15:36:43.162Z,4.20
2018-03-11T15:39:10.627Z,4.30
2018-03-11T15:41:38.081Z,5.10
2018-03-11T15:44:05.533Z,6.60
2018-03-11T15:46:32.997Z,7.70
2018-03-11T15:49:00.449Z,6.67
2018-03-11T15:51:27.958Z,6.57
2018-03-11T15:53:55.389Z,8.50
2018-03-11T15:56:23.638Z,10.17
2018-03-11T15:58:51.092Z,9.47
2018-03-11T16:01:18.565Z,7.20
2018-03-11T16:03:46.785Z,5.93
2018-03-11T16:06:14.273Z,5.27
2018-03-11T16:08:41.739Z,5.07
2018-03-11T16:11:09.206Z,5.10
2018-03-11T16:13:36.665Z,4.80
2018-03-11T16:16:04.167Z,5.40
2018-03-11T16:18:31.629Z,5.60
2018-03-11T16:20:59.111Z,5.60
2018-03-11T16:23:26.603Z,5.20
2018-03-11T16:25:54.842Z,5.50
2018-03-11T16:28:22.305Z,4.90
2018-03-11T16:30:49.754Z,5.13
2018-03-11T16:33:17.238Z,5.63
2018-03-11T16:35:44.688Z,4.47
2018-03-11T16:38:12.162Z,6.17
2018-03-11T16:40:40.401Z,6.17
2018-03-11T16:43:07.875Z,6.50
2018-03-11T16:45:35.337Z,8.07
2018-03-11T16:48:02.817Z,6.90
2018-03-11T16:50:30.285Z,8.90
2018-03-11T16:52:57.756Z,7.00
2018-03-11T16:55:25.219Z,7.20
2018-03-11T16:57:52.712Z,5.70
2018-03-11T17:00:20.181Z,8.63
2018-03-11T17:02:47.671Z,6.23
2018-03-11T17:05:15.113Z,6.60
2018-03-11T17:07:43.370Z,5.93
2018-03-11T17:10:10.825Z,5.83
2018-03-11T17:12:38.302Z,5.50
2018-03-11T17:15:06.514Z,6.10
2018-03-11T17:17:33.997Z,5.80
2018-03-11T17:20:01.456Z,5.40
2018-03-11T17:22:28.929Z,4.87
2018-03-11T17:24:57.181Z,5.47
2018-03-11T17:27:24.641Z,4.80
2018-03-11T17:29:52.093Z,4.90
2018-03-11T17:32:19.554Z,4.13
2018-03-11T17:34:47.013Z,5.30
2018-03-11T17:37:14.470Z,4.50
2018-03-11T17:39:41.929Z,5.27
2018-03-11T17:42:09.372Z,5.00
2018-03-11T17:44:36.844Z,5.70
2018-03-11T17:47:04.300Z,5.13
2018-03-11T17:49:31.757Z,5.80
2018-03-11T17:51:59.209Z,5.83
2018-03-11T17:54:26.664Z,8.00
2018-03-11T17:56:54.110Z,8.33
2018-03-11T17:59:21.560Z,5.80
2018-03-11T18:01:49.016Z,5.60
2018-03-11T18:04:16.465Z,5.13
2018-03-11T18:06:43.912Z,5.63
2018-03-11T18:09:11.375Z,5.03
2018-03-11T18:11:38.820Z,5.10
2018-03-11T18:14:06.280Z,5.27
2018-03-11T18:16:33.750Z,4.53
2018-03-11T18:19:01.206Z,4.87
2018-03-11T18:21:28.672Z,8.13
2018-03-11T18:23:56.175Z,7.53
2018-03-11T18:26:23.588Z,6.03
2018-03-11T18:28:51.805Z,5.50
2018-03-11T18:31:20.029Z,5.00
2018-03-11T18:33:47.480Z,5.60
2018-03-11T18:36:14.943Z,8.37
2018-03-11T18:38:42.385Z,8.23
2018-03-11T18:41:09.851Z,7.73
2018-03-11T18:43:37.301Z,8.40
2018-03-11T18:46:04.763Z,9.13
2018-03-11T18:48:32.217Z,8.47
2018-03-11T18:50:59.669Z,7.70
2018-03-11T18:53:27.119Z,8.37
2018-03-11T18:55:54.601Z,7.93
2018-03-11T18:58:22.079Z,7.60
2018-03-11T19:00:49.537Z,7.70
2018-03-11T19:03:16.993Z,7.77
2018-03-11T19:05:44.453Z,7.60
2018-03-11T19:08:11.914Z,7.80
2018-03-11T19:10:40.231Z,7.73
2018-03-11T19:13:07.690Z,8.10
2018-03-11T19:15:35.149Z,8.07
2018-03-11T19:18:02.626Z,8.47
2018-03-11T19:20:30.066Z,8.80
2018-03-11T19:22:57.520Z,9.40
2018-03-11T19:25:24.982Z,8.90
2018-03-11T19:27:52.433Z,8.00
2018-03-11T19:30:19.868Z,9.10
2018-03-11T19:32:47.328Z,9.07
2018-03-11T19:35:14.776Z,9.10
2018-03-11T19:37:42.256Z,9.57
2018-03-11T19:40:09.721Z,8.40
2018-03-11T19:42:37.207Z,8.47
2018-03-11T19:45:04.645Z,8.07
2018-03-11T19:47:32.632Z,8.57
2018-03-11T19:50:00.146Z,7.90
2018-03-11T19:52:27.607Z,8.07
2018-03-11T19:54:55.052Z,8.40
2018-03-11T19:57:22.515Z,7.27
2018-03-11T19:59:49.986Z,7.90
2018-03-11T20:02:17.445Z,8.67
2018-03-11T20:04:44.901Z,7.50
2018-03-11T20:07:12.358Z,6.07
2018-03-11T20:09:39.805Z,7.10
2018-03-11T20:12:07.269Z,6.83
2018-03-11T20:14:34.717Z,7.40
2018-03-11T20:17:02.184Z,7.60
2018-03-11T20:19:29.642Z,7.03
2018-03-11T20:21:57.101Z,8.37
2018-03-11T20:24:24.550Z,7.00
2018-03-11T20:26:52.002Z,7.80
2018-03-11T20:29:19.461Z,7.90
2018-03-11T20:31:46.928Z,8.50
2018-03-11T20:34:14.372Z,8.80
2018-03-11T20:36:41.838Z,8.80
2018-03-11T20:39:09.286Z,8.83
2018-03-11T20:41:36.758Z,9.47
2018-03-11T20:44:04.213Z,11.20
2018-03-11T20:46:31.678Z,10.70
2018-03-11T20:48:59.157Z,10.03
2018-03-11T20:51:26.644Z,9.17
2018-03-11T20:53:54.096Z,8.30
2018-03-11T20:56:21.553Z,9.60
2018-03-11T20:58:49.021Z,8.47
2018-03-11T21:01:16.476Z,9.33
2018-03-11T21:03:43.946Z,8.67
2018-03-11T21:06:11.405Z,9.20
2018-03-11T21:08:38.868Z,10.07
2018-03-11T21:11:06.337Z,9.77
2018-03-11T21:13:33.802Z,10.40
2018-03-11T21:16:01.254Z,11.30
2018-03-11T21:18:28.723Z,10.80
2018-03-11T21:20:56.173Z,11.20
2018-03-11T21:23:23.633Z,10.43
2018-03-11T21:25:51.096Z,10.17
2018-03-11T21:28:19.339Z,12.10
2018-03-11T21:30:46.798Z,11.87
2018-03-11T21:33:14.269Z,12.57
2018-03-11T21:35:41.806Z,12.60
2018-03-11T21:38:09.272Z,11.97
2018-03-11T21:40:36.738Z,13.07
2018-03-11T21:43:04.206Z,13.30
2018-03-11T21:45:33.164Z,12.73
2018-03-11T21:48:00.624Z,13.80
2018-03-11T21:50:28.110Z,12.50
2018-03-11T21:52:55.568Z,14.27
2018-03-11T21:55:23.020Z,13.10
2018-03-11T21:57:50.489Z,12.77
2018-03-11T22:00:18.001Z,14.37
2018-03-11T22:02:45.457Z,15.27
2018-03-11T22:05:12.914Z,15.10
2018-03-11T22:07:40.377Z,14.33
2018-03-11T22:10:07.828Z,15.50
2018-03-11T22:12:35.297Z,14.50
2018-03-11T22:15:02.758Z,14.80
2018-03-11T22:17:30.246Z,14.50
2018-03-11T22:19:57.699Z,16.20
2018-03-11T22:22:25.228Z,14.97
2018-03-11T22:24:52.681Z,14.83
2018-03-11T22:27:20.141Z,14.60
2018-03-11T22:29:47.610Z,13.90
2018-03-11T22:32:15.064Z,14.10
2018-03-11T22:34:42.528Z,14.97
2018-03-11T22:37:09.991Z,13.60
2018-03-11T22:39:37.453Z,15.23
2018-03-11T22:42:04.914Z,13.83
2018-03-11T22:44:32.424Z,13.67
2018-03-11T22:46:59.881Z,14.13
2018-03-11T22:49:27.353Z,14.63
2018-03-11T22:51:54.808Z,14.60
2018-03-11T22:54:22.269Z,15.07
2018-03-11T22:56:49.745Z,13.17
2018-03-11T22:59:17.212Z,14.70
2018-03-11T23:01:44.661Z,14.23
2018-03-11T23:04:12.135Z,14.53
2018-03-11T23:06:39.582Z,12.60
2018-03-11T23:09:07.440Z,13.80
2018-03-11T23:11:34.918Z,17.53
2018-03-11T23:14:02.369Z,16.73
2018-03-11T23:16:29.821Z,17.30
2018-03-11T23:19:08.967Z,15.00
2018-03-11T23:21:36.413Z,15.90
2018-03-11T23:24:03.876Z,13.57
2018-03-11T23:26:32.093Z,11.90
2018-03-11T23:28:59.559Z,12.90
2018-03-11T23:31:27.012Z,13.13
2018-03-11T23:33:54.485Z,13.67
2018-03-11T23:36:21.968Z,15.90
2018-03-11T23:38:50.201Z,14.63
2018-03-11T23:41:17.656Z,14.70
2018-03-11T23:43:45.125Z,14.27
2018-03-11T23:46:12.585Z,16.37
2018-03-11T23:48:40.071Z,15.87
2018-03-11T23:51:07.521Z,15.43
2018-03-11T23:53:34.990Z,17.23
2018-03-11T23:56:03.220Z,17.13
2018-03-11T23:58:30.694Z,16.50
